sensor_id;sensor_type;location;lat;lon;timestamp;temperature;humidity
23231;DHT22;11784;49.818;8.632;2022-08-19T00:01:19;24.10;83.70
23231;DHT22;11784;49.818;8.632;2022-08-19T00:03:45;24.10;83.90
23231;DHT22;11784;49.818;8.632;2022-08-19T00:06:11;24.10;84.40
23231;DHT22;11784;49.818;8.632;2022-08-19T00:08:37;24.10;83.10
23231;DHT22;11784;49.818;8.632;2022-08-19T00:11:03;24.10;84.70
23231;DHT22;11784;49.818;8.632;2022-08-19T00:13:28;24.10;85.50
23231;DHT22;11784;49.818;8.632;2022-08-19T00:15:55;24.10;84.30
23231;DHT22;11784;49.818;8.632;2022-08-19T00:18:20;24.10;85.20
23231;DHT22;11784;49.818;8.632;2022-08-19T00:20:46;24.10;85.10
23231;DHT22;11784;49.818;8.632;2022-08-19T00:23:11;24.10;84.50
23231;DHT22;11784;49.818;8.632;2022-08-19T00:25:37;24.10;83.60
23231;DHT22;11784;49.818;8.632;2022-08-19T00:28:03;24.10;84.30
23231;DHT22;11784;49.818;8.632;2022-08-19T00:30:29;24.10;85.00
23231;DHT22;11784;49.818;8.632;2022-08-19T00:32:55;24.10;82.90
23231;DHT22;11784;49.818;8.632;2022-08-19T00:35:21;24.10;83.40
23231;DHT22;11784;49.818;8.632;2022-08-19T00:37:50;24.10;82.60
23231;DHT22;11784;49.818;8.632;2022-08-19T00:40:17;24.10;82.80
23231;DHT22;11784;49.818;8.632;2022-08-19T00:42:44;24.10;83.40
23231;DHT22;11784;49.818;8.632;2022-08-19T00:45:22;24.10;83.20
23231;DHT22;11784;49.818;8.632;2022-08-19T00:47:48;24.10;82.30
23231;DHT22;11784;49.818;8.632;2022-08-19T00:50:17;24.10;82.70
23231;DHT22;11784;49.818;8.632;2022-08-19T00:52:46;24.10;82.90
23231;DHT22;11784;49.818;8.632;2022-08-19T00:55:17;24.10;83.90
23231;DHT22;11784;49.818;8.632;2022-08-19T00:57:48;24.10;84.20
23231;DHT22;11784;49.818;8.632;2022-08-19T01:00:18;24.10;83.40
23231;DHT22;11784;49.818;8.632;2022-08-19T01:02:44;24.10;83.40
23231;DHT22;11784;49.818;8.632;2022-08-19T01:05:16;24.10;82.50
23231;DHT22;11784;49.818;8.632;2022-08-19T01:07:43;24.10;82.20
23231;DHT22;11784;49.818;8.632;2022-08-19T01:10:12;24.10;83.10
23231;DHT22;11784;49.818;8.632;2022-08-19T01:12:39;24.10;84.40
23231;DHT22;11784;49.818;8.632;2022-08-19T01:15:07;24.10;84.10
23231;DHT22;11784;49.818;8.632;2022-08-19T01:17:35;24.00;83.60
23231;DHT22;11784;49.818;8.632;2022-08-19T01:20:03;24.10;83.60
23231;DHT22;11784;49.818;8.632;2022-08-19T01:22:39;24.10;82.70
23231;DHT22;11784;49.818;8.632;2022-08-19T01:25:08;24.10;83.30
23231;DHT22;11784;49.818;8.632;2022-08-19T01:27:41;24.10;83.20
23231;DHT22;11784;49.818;8.632;2022-08-19T01:30:08;24.10;82.20
23231;DHT22;11784;49.818;8.632;2022-08-19T01:32:34;24.00;81.60
23231;DHT22;11784;49.818;8.632;2022-08-19T01:35:02;24.00;81.00
23231;DHT22;11784;49.818;8.632;2022-08-19T01:37:28;24.00;80.80
23231;DHT22;11784;49.818;8.632;2022-08-19T01:39:55;24.00;81.90
23231;DHT22;11784;49.818;8.632;2022-08-19T01:42:21;24.10;81.40
23231;DHT22;11784;49.818;8.632;2022-08-19T01:44:47;24.00;80.40
23231;DHT22;11784;49.818;8.632;2022-08-19T01:47:13;24.00;80.20
23231;DHT22;11784;49.818;8.632;2022-08-19T01:49:38;24.00;82.20
23231;DHT22;11784;49.818;8.632;2022-08-19T01:52:05;24.00;80.70
23231;DHT22;11784;49.818;8.632;2022-08-19T01:54:31;24.00;80.40
23231;DHT22;11784;49.818;8.632;2022-08-19T01:57:05;24.00;80.40
23231;DHT22;11784;49.818;8.632;2022-08-19T01:59:40;24.00;81.30
23231;DHT22;11784;49.818;8.632;2022-08-19T02:02:06;24.00;82.50
23231;DHT22;11784;49.818;8.632;2022-08-19T02:04:36;24.00;82.60
23231;DHT22;11784;49.818;8.632;2022-08-19T02:07:05;24.00;81.20
23231;DHT22;11784;49.818;8.632;2022-08-19T02:09:32;24.00;82.00
23231;DHT22;11784;49.818;8.632;2022-08-19T02:11:57;24.00;81.50
23231;DHT22;11784;49.818;8.632;2022-08-19T02:14:23;24.00;81.30
23231;DHT22;11784;49.818;8.632;2022-08-19T02:16:49;24.00;82.40
23231;DHT22;11784;49.818;8.632;2022-08-19T02:19:14;24.00;82.80
23231;DHT22;11784;49.818;8.632;2022-08-19T02:21:40;24.00;83.20
23231;DHT22;11784;49.818;8.632;2022-08-19T02:24:06;24.00;82.90
23231;DHT22;11784;49.818;8.632;2022-08-19T02:26:32;24.00;82.20
23231;DHT22;11784;49.818;8.632;2022-08-19T02:28:57;24.00;82.20
23231;DHT22;11784;49.818;8.632;2022-08-19T02:31:24;24.00;82.30
23231;DHT22;11784;49.818;8.632;2022-08-19T02:33:50;24.00;82.20
23231;DHT22;11784;49.818;8.632;2022-08-19T02:36:20;23.90;82.70
23231;DHT22;11784;49.818;8.632;2022-08-19T02:38:46;23.90;82.30
23231;DHT22;11784;49.818;8.632;2022-08-19T02:41:19;23.90;82.00
23231;DHT22;11784;49.818;8.632;2022-08-19T02:43:45;23.90;82.80
23231;DHT22;11784;49.818;8.632;2022-08-19T02:48:50;23.90;83.40
23231;DHT22;11784;49.818;8.632;2022-08-19T02:51:21;23.90;82.90
23231;DHT22;11784;49.818;8.632;2022-08-19T02:53:47;23.80;82.90
23231;DHT22;11784;49.818;8.632;2022-08-19T02:56:15;23.80;82.90
23231;DHT22;11784;49.818;8.632;2022-08-19T02:58:41;23.80;83.20
23231;DHT22;11784;49.818;8.632;2022-08-19T03:01:09;23.80;81.30
23231;DHT22;11784;49.818;8.632;2022-08-19T03:03:36;23.70;82.00
23231;DHT22;11784;49.818;8.632;2022-08-19T03:06:07;23.70;82.90
23231;DHT22;11784;49.818;8.632;2022-08-19T03:08:33;23.70;83.20
23231;DHT22;11784;49.818;8.632;2022-08-19T03:10:58;23.70;83.40
23231;DHT22;11784;49.818;8.632;2022-08-19T03:13:24;23.60;83.10
23231;DHT22;11784;49.818;8.632;2022-08-19T03:15:50;23.60;83.30
23231;DHT22;11784;49.818;8.632;2022-08-19T03:18:16;23.60;83.70
23231;DHT22;11784;49.818;8.632;2022-08-19T03:20:47;23.60;83.70
23231;DHT22;11784;49.818;8.632;2022-08-19T03:23:15;23.60;83.80
23231;DHT22;11784;49.818;8.632;2022-08-19T03:25:44;23.60;84.20
23231;DHT22;11784;49.818;8.632;2022-08-19T03:28:11;23.60;83.90
23231;DHT22;11784;49.818;8.632;2022-08-19T03:30:37;23.60;84.10
23231;DHT22;11784;49.818;8.632;2022-08-19T03:33:05;23.60;84.20
23231;DHT22;11784;49.818;8.632;2022-08-19T03:35:30;23.60;82.70
23231;DHT22;11784;49.818;8.632;2022-08-19T03:37:58;23.50;83.20
23231;DHT22;11784;49.818;8.632;2022-08-19T03:40:23;23.60;83.60
23231;DHT22;11784;49.818;8.632;2022-08-19T03:42:50;23.50;83.80
23231;DHT22;11784;49.818;8.632;2022-08-19T03:45:16;23.60;84.10
23231;DHT22;11784;49.818;8.632;2022-08-19T03:47:41;23.60;84.20
23231;DHT22;11784;49.818;8.632;2022-08-19T03:50:07;23.50;83.60
23231;DHT22;11784;49.818;8.632;2022-08-19T03:52:34;23.50;83.90
23231;DHT22;11784;49.818;8.632;2022-08-19T03:54:59;23.50;84.00
23231;DHT22;11784;49.818;8.632;2022-08-19T03:57:25;23.50;85.20
23231;DHT22;11784;49.818;8.632;2022-08-19T03:59:50;23.50;83.50
23231;DHT22;11784;49.818;8.632;2022-08-19T04:02:16;23.50;84.10
23231;DHT22;11784;49.818;8.632;2022-08-19T04:04:43;23.50;83.50
23231;DHT22;11784;49.818;8.632;2022-08-19T04:07:09;23.50;83.20
23231;DHT22;11784;49.818;8.632;2022-08-19T04:09:35;23.50;83.50
23231;DHT22;11784;49.818;8.632;2022-08-19T04:12:04;23.40;83.80
23231;DHT22;11784;49.818;8.632;2022-08-19T04:14:31;23.40;84.30
23231;DHT22;11784;49.818;8.632;2022-08-19T04:16:58;23.50;83.50
23231;DHT22;11784;49.818;8.632;2022-08-19T04:19:24;23.40;83.70
23231;DHT22;11784;49.818;8.632;2022-08-19T04:21:52;23.40;83.50
23231;DHT22;11784;49.818;8.632;2022-08-19T04:24:18;23.40;83.80
23231;DHT22;11784;49.818;8.632;2022-08-19T04:26:45;23.40;83.50
23231;DHT22;11784;49.818;8.632;2022-08-19T04:29:14;23.40;83.50
23231;DHT22;11784;49.818;8.632;2022-08-19T04:31:41;23.30;83.60
23231;DHT22;11784;49.818;8.632;2022-08-19T04:34:08;23.30;83.50
23231;DHT22;11784;49.818;8.632;2022-08-19T04:36:37;23.30;82.40
23231;DHT22;11784;49.818;8.632;2022-08-19T04:39:06;23.30;82.90
23231;DHT22;11784;49.818;8.632;2022-08-19T04:41:32;23.30;82.60
23231;DHT22;11784;49.818;8.632;2022-08-19T04:44:16;23.30;82.70
23231;DHT22;11784;49.818;8.632;2022-08-19T04:46:49;23.30;82.70
23231;DHT22;11784;49.818;8.632;2022-08-19T04:49:16;23.30;83.30
23231;DHT22;11784;49.818;8.632;2022-08-19T04:51:44;23.20;82.70
23231;DHT22;11784;49.818;8.632;2022-08-19T04:54:10;23.20;83.60
23231;DHT22;11784;49.818;8.632;2022-08-19T04:56:36;23.20;83.90
23231;DHT22;11784;49.818;8.632;2022-08-19T04:59:02;23.20;84.30
23231;DHT22;11784;49.818;8.632;2022-08-19T05:01:30;23.20;83.90
23231;DHT22;11784;49.818;8.632;2022-08-19T05:03:58;23.20;82.70
23231;DHT22;11784;49.818;8.632;2022-08-19T05:06:25;23.20;83.80
23231;DHT22;11784;49.818;8.632;2022-08-19T05:08:51;23.20;83.80
23231;DHT22;11784;49.818;8.632;2022-08-19T05:11:20;23.30;84.20
23231;DHT22;11784;49.818;8.632;2022-08-19T05:13:47;23.30;84.00
23231;DHT22;11784;49.818;8.632;2022-08-19T05:16:15;23.20;83.80
23231;DHT22;11784;49.818;8.632;2022-08-19T05:18:41;23.30;82.00
23231;DHT22;11784;49.818;8.632;2022-08-19T05:21:26;23.20;82.70
23231;DHT22;11784;49.818;8.632;2022-08-19T05:24:11;23.20;82.80
23231;DHT22;11784;49.818;8.632;2022-08-19T05:26:39;23.30;83.50
23231;DHT22;11784;49.818;8.632;2022-08-19T05:29:07;23.30;83.60
23231;DHT22;11784;49.818;8.632;2022-08-19T05:31:34;23.30;84.00
23231;DHT22;11784;49.818;8.632;2022-08-19T05:34:01;23.40;84.20
23231;DHT22;11784;49.818;8.632;2022-08-19T05:36:28;23.30;83.80
23231;DHT22;11784;49.818;8.632;2022-08-19T05:38:54;23.40;83.90
23231;DHT22;11784;49.818;8.632;2022-08-19T05:41:21;23.40;83.20
23231;DHT22;11784;49.818;8.632;2022-08-19T05:43:55;23.40;84.10
23231;DHT22;11784;49.818;8.632;2022-08-19T05:46:21;23.40;84.10
23231;DHT22;11784;49.818;8.632;2022-08-19T05:48:47;23.40;84.10
23231;DHT22;11784;49.818;8.632;2022-08-19T05:51:15;23.50;83.80
23231;DHT22;11784;49.818;8.632;2022-08-19T05:53:41;23.50;84.30
23231;DHT22;11784;49.818;8.632;2022-08-19T05:56:10;23.50;83.70
23231;DHT22;11784;49.818;8.632;2022-08-19T05:58:37;23.50;83.90
23231;DHT22;11784;49.818;8.632;2022-08-19T06:01:04;23.50;83.20
23231;DHT22;11784;49.818;8.632;2022-08-19T06:03:34;23.60;84.20
23231;DHT22;11784;49.818;8.632;2022-08-19T06:06:00;23.60;82.70
23231;DHT22;11784;49.818;8.632;2022-08-19T06:08:26;23.60;82.40
23231;DHT22;11784;49.818;8.632;2022-08-19T06:10:53;23.60;82.60
23231;DHT22;11784;49.818;8.632;2022-08-19T06:13:18;23.60;81.90
23231;DHT22;11784;49.818;8.632;2022-08-19T06:15:45;23.70;82.00
23231;DHT22;11784;49.818;8.632;2022-08-19T06:18:12;23.70;80.90
23231;DHT22;11784;49.818;8.632;2022-08-19T06:20:38;23.80;80.40
23231;DHT22;11784;49.818;8.632;2022-08-19T06:23:03;23.80;79.70
23231;DHT22;11784;49.818;8.632;2022-08-19T06:25:29;23.80;77.90
23231;DHT22;11784;49.818;8.632;2022-08-19T06:27:55;23.80;76.50
23231;DHT22;11784;49.818;8.632;2022-08-19T06:30:20;23.80;77.50
23231;DHT22;11784;49.818;8.632;2022-08-19T06:32:46;23.90;77.50
23231;DHT22;11784;49.818;8.632;2022-08-19T06:35:11;23.90;76.90
23231;DHT22;11784;49.818;8.632;2022-08-19T06:37:38;24.00;77.20
23231;DHT22;11784;49.818;8.632;2022-08-19T06:40:04;24.00;76.20
23231;DHT22;11784;49.818;8.632;2022-08-19T06:42:30;24.00;76.20
23231;DHT22;11784;49.818;8.632;2022-08-19T06:44:56;24.00;76.20
23231;DHT22;11784;49.818;8.632;2022-08-19T06:47:23;24.00;75.20
23231;DHT22;11784;49.818;8.632;2022-08-19T06:49:48;24.00;76.70
23231;DHT22;11784;49.818;8.632;2022-08-19T06:52:14;24.00;76.60
23231;DHT22;11784;49.818;8.632;2022-08-19T06:54:41;24.00;77.30
23231;DHT22;11784;49.818;8.632;2022-08-19T06:57:08;24.10;77.90
23231;DHT22;11784;49.818;8.632;2022-08-19T06:59:38;24.10;78.60
23231;DHT22;11784;49.818;8.632;2022-08-19T07:02:05;24.20;79.00
23231;DHT22;11784;49.818;8.632;2022-08-19T07:04:32;24.20;80.20
23231;DHT22;11784;49.818;8.632;2022-08-19T07:07:06;24.30;79.30
23231;DHT22;11784;49.818;8.632;2022-08-19T07:09:35;24.40;77.90
23231;DHT22;11784;49.818;8.632;2022-08-19T07:12:03;24.40;75.80
23231;DHT22;11784;49.818;8.632;2022-08-19T07:14:29;24.50;76.10
23231;DHT22;11784;49.818;8.632;2022-08-19T07:16:56;24.50;76.80
23231;DHT22;11784;49.818;8.632;2022-08-19T07:19:24;24.50;76.50
23231;DHT22;11784;49.818;8.632;2022-08-19T07:21:53;24.60;75.60
23231;DHT22;11784;49.818;8.632;2022-08-19T07:24:20;24.60;76.20
23231;DHT22;11784;49.818;8.632;2022-08-19T07:26:46;24.60;76.70
23231;DHT22;11784;49.818;8.632;2022-08-19T07:29:12;24.60;75.90
23231;DHT22;11784;49.818;8.632;2022-08-19T07:31:38;24.60;75.40
23231;DHT22;11784;49.818;8.632;2022-08-19T07:34:06;24.70;73.30
23231;DHT22;11784;49.818;8.632;2022-08-19T07:36:34;24.70;71.70
23231;DHT22;11784;49.818;8.632;2022-08-19T07:39:03;24.80;70.80
23231;DHT22;11784;49.818;8.632;2022-08-19T07:41:29;24.70;70.60
23231;DHT22;11784;49.818;8.632;2022-08-19T07:43:55;24.80;71.60
23231;DHT22;11784;49.818;8.632;2022-08-19T07:46:21;24.80;72.20
23231;DHT22;11784;49.818;8.632;2022-08-19T07:48:49;24.90;71.30
23231;DHT22;11784;49.818;8.632;2022-08-19T07:51:20;25.00;72.10
23231;DHT22;11784;49.818;8.632;2022-08-19T07:53:47;25.00;72.20
23231;DHT22;11784;49.818;8.632;2022-08-19T07:56:14;25.10;70.10
23231;DHT22;11784;49.818;8.632;2022-08-19T07:58:44;25.10;70.80
23231;DHT22;11784;49.818;8.632;2022-08-19T08:01:13;25.10;70.60
23231;DHT22;11784;49.818;8.632;2022-08-19T08:03:39;25.20;69.40
23231;DHT22;11784;49.818;8.632;2022-08-19T08:06:23;25.20;68.60
23231;DHT22;11784;49.818;8.632;2022-08-19T08:09:08;25.20;68.80
23231;DHT22;11784;49.818;8.632;2022-08-19T08:11:41;25.20;67.90
23231;DHT22;11784;49.818;8.632;2022-08-19T08:14:08;25.10;67.90
23231;DHT22;11784;49.818;8.632;2022-08-19T08:16:36;25.10;67.90
23231;DHT22;11784;49.818;8.632;2022-08-19T08:19:05;25.10;68.00
23231;DHT22;11784;49.818;8.632;2022-08-19T08:21:32;25.10;69.70
23231;DHT22;11784;49.818;8.632;2022-08-19T08:23:57;25.10;68.90
23231;DHT22;11784;49.818;8.632;2022-08-19T08:26:23;25.20;69.10
23231;DHT22;11784;49.818;8.632;2022-08-19T08:28:49;25.20;69.60
23231;DHT22;11784;49.818;8.632;2022-08-19T08:31:15;25.20;69.80
23231;DHT22;11784;49.818;8.632;2022-08-19T08:33:40;25.30;70.50
23231;DHT22;11784;49.818;8.632;2022-08-19T08:36:07;25.40;70.10
23231;DHT22;11784;49.818;8.632;2022-08-19T08:38:33;25.40;69.10
23231;DHT22;11784;49.818;8.632;2022-08-19T08:41:13;25.40;68.50
23231;DHT22;11784;49.818;8.632;2022-08-19T08:43:46;25.50;68.10
23231;DHT22;11784;49.818;8.632;2022-08-19T08:46:21;25.50;66.70
23231;DHT22;11784;49.818;8.632;2022-08-19T08:48:52;25.50;67.20
23231;DHT22;11784;49.818;8.632;2022-08-19T08:51:25;25.60;67.30
23231;DHT22;11784;49.818;8.632;2022-08-19T08:53:52;25.70;66.30
23231;DHT22;11784;49.818;8.632;2022-08-19T08:56:19;25.70;64.90
23231;DHT22;11784;49.818;8.632;2022-08-19T08:59:00;25.70;65.20
23231;DHT22;11784;49.818;8.632;2022-08-19T09:01:27;25.70;65.60
23231;DHT22;11784;49.818;8.632;2022-08-19T09:03:53;25.80;66.00
23231;DHT22;11784;49.818;8.632;2022-08-19T09:06:38;25.80;66.10
23231;DHT22;11784;49.818;8.632;2022-08-19T09:17:02;26.10;64.50
23231;DHT22;11784;49.818;8.632;2022-08-19T09:19:29;26.20;64.30
23231;DHT22;11784;49.818;8.632;2022-08-19T09:21:55;26.20;62.40
23231;DHT22;11784;49.818;8.632;2022-08-19T09:24:25;26.20;62.70
23231;DHT22;11784;49.818;8.632;2022-08-19T09:26:51;26.20;61.10
23231;DHT22;11784;49.818;8.632;2022-08-19T09:29:16;26.20;61.00
23231;DHT22;11784;49.818;8.632;2022-08-19T09:31:42;26.10;60.30
23231;DHT22;11784;49.818;8.632;2022-08-19T09:34:07;26.10;61.10
23231;DHT22;11784;49.818;8.632;2022-08-19T09:36:34;26.10;61.10
23231;DHT22;11784;49.818;8.632;2022-08-19T09:39:03;26.10;62.00
23231;DHT22;11784;49.818;8.632;2022-08-19T09:41:29;26.10;62.50
23231;DHT22;11784;49.818;8.632;2022-08-19T09:43:56;26.10;61.70
23231;DHT22;11784;49.818;8.632;2022-08-19T09:46:24;26.00;60.90
23231;DHT22;11784;49.818;8.632;2022-08-19T09:48:51;26.10;62.10
23231;DHT22;11784;49.818;8.632;2022-08-19T09:51:20;26.10;63.30
23231;DHT22;11784;49.818;8.632;2022-08-19T09:53:47;26.20;61.40
23231;DHT22;11784;49.818;8.632;2022-08-19T09:56:16;26.20;62.00
23231;DHT22;11784;49.818;8.632;2022-08-19T09:58:47;26.20;60.80
23231;DHT22;11784;49.818;8.632;2022-08-19T10:01:18;26.20;60.60
23231;DHT22;11784;49.818;8.632;2022-08-19T10:03:48;26.10;60.90
23231;DHT22;11784;49.818;8.632;2022-08-19T10:06:13;26.10;60.40
23231;DHT22;11784;49.818;8.632;2022-08-19T10:08:39;26.00;61.10
23231;DHT22;11784;49.818;8.632;2022-08-19T10:11:05;26.10;61.80
23231;DHT22;11784;49.818;8.632;2022-08-19T10:13:31;26.10;62.80
23231;DHT22;11784;49.818;8.632;2022-08-19T10:16:05;26.20;61.90
23231;DHT22;11784;49.818;8.632;2022-08-19T10:18:31;26.20;62.20
23231;DHT22;11784;49.818;8.632;2022-08-19T10:21:12;26.20;61.30
23231;DHT22;11784;49.818;8.632;2022-08-19T10:23:41;26.20;61.90
23231;DHT22;11784;49.818;8.632;2022-08-19T10:26:09;26.20;62.10
23231;DHT22;11784;49.818;8.632;2022-08-19T10:28:36;26.30;62.40
23231;DHT22;11784;49.818;8.632;2022-08-19T10:31:13;26.30;61.00
23231;DHT22;11784;49.818;8.632;2022-08-19T10:33:39;26.40;62.30
23231;DHT22;11784;49.818;8.632;2022-08-19T10:36:20;26.50;60.40
23231;DHT22;11784;49.818;8.632;2022-08-19T10:38:47;26.60;58.80
23231;DHT22;11784;49.818;8.632;2022-08-19T10:41:18;26.70;59.40
23231;DHT22;11784;49.818;8.632;2022-08-19T10:43:45;26.70;59.90
23231;DHT22;11784;49.818;8.632;2022-08-19T10:46:13;26.90;59.20
23231;DHT22;11784;49.818;8.632;2022-08-19T10:48:40;26.90;58.10
23231;DHT22;11784;49.818;8.632;2022-08-19T10:51:05;26.80;58.30
23231;DHT22;11784;49.818;8.632;2022-08-19T10:53:51;26.80;58.40
23231;DHT22;11784;49.818;8.632;2022-08-19T10:56:17;26.80;59.20
23231;DHT22;11784;49.818;8.632;2022-08-19T10:59:02;26.80;57.90
23231;DHT22;11784;49.818;8.632;2022-08-19T11:01:28;26.80;58.10
23231;DHT22;11784;49.818;8.632;2022-08-19T11:03:55;26.90;58.00
23231;DHT22;11784;49.818;8.632;2022-08-19T11:06:22;26.90;57.70
23231;DHT22;11784;49.818;8.632;2022-08-19T11:08:50;27.00;57.50
23231;DHT22;11784;49.818;8.632;2022-08-19T11:11:16;27.00;57.00
23231;DHT22;11784;49.818;8.632;2022-08-19T11:13:42;27.10;56.90
23231;DHT22;11784;49.818;8.632;2022-08-19T11:16:16;27.00;55.00
23231;DHT22;11784;49.818;8.632;2022-08-19T11:18:48;27.00;56.60
23231;DHT22;11784;49.818;8.632;2022-08-19T11:21:23;27.10;56.00
23231;DHT22;11784;49.818;8.632;2022-08-19T11:23:51;27.10;54.90
23231;DHT22;11784;49.818;8.632;2022-08-19T11:26:18;27.10;54.70
23231;DHT22;11784;49.818;8.632;2022-08-19T11:28:45;27.10;55.50
23231;DHT22;11784;49.818;8.632;2022-08-19T11:31:17;27.10;54.50
23231;DHT22;11784;49.818;8.632;2022-08-19T11:33:43;27.10;54.70
23231;DHT22;11784;49.818;8.632;2022-08-19T11:36:09;27.10;54.30
23231;DHT22;11784;49.818;8.632;2022-08-19T11:38:36;27.20;54.40
23231;DHT22;11784;49.818;8.632;2022-08-19T11:41:06;27.20;55.50
23231;DHT22;11784;49.818;8.632;2022-08-19T11:43:33;27.30;54.70
23231;DHT22;11784;49.818;8.632;2022-08-19T11:45:59;27.40;55.30
23231;DHT22;11784;49.818;8.632;2022-08-19T11:48:25;27.40;53.70
23231;DHT22;11784;49.818;8.632;2022-08-19T11:50:54;27.50;53.70
23231;DHT22;11784;49.818;8.632;2022-08-19T11:53:21;27.50;53.00
23231;DHT22;11784;49.818;8.632;2022-08-19T11:55:48;27.60;52.60
23231;DHT22;11784;49.818;8.632;2022-08-19T11:58:15;27.60;52.20
23231;DHT22;11784;49.818;8.632;2022-08-19T12:00:42;27.70;52.10
23231;DHT22;11784;49.818;8.632;2022-08-19T12:03:08;27.70;52.50
23231;DHT22;11784;49.818;8.632;2022-08-19T12:05:36;27.70;51.50
23231;DHT22;11784;49.818;8.632;2022-08-19T12:08:02;27.70;51.60
23231;DHT22;11784;49.818;8.632;2022-08-19T12:10:28;27.80;50.60
23231;DHT22;11784;49.818;8.632;2022-08-19T12:12:53;27.80;52.00
23231;DHT22;11784;49.818;8.632;2022-08-19T12:15:19;27.80;49.50
23231;DHT22;11784;49.818;8.632;2022-08-19T12:17:44;27.80;50.30
23231;DHT22;11784;49.818;8.632;2022-08-19T12:20:11;27.90;50.70
23231;DHT22;11784;49.818;8.632;2022-08-19T12:22:39;27.90;50.10
23231;DHT22;11784;49.818;8.632;2022-08-19T12:25:07;28.00;49.70
23231;DHT22;11784;49.818;8.632;2022-08-19T12:27:34;28.10;48.70
23231;DHT22;11784;49.818;8.632;2022-08-19T12:30:02;28.10;48.30
23231;DHT22;11784;49.818;8.632;2022-08-19T12:32:27;28.20;48.60
23231;DHT22;11784;49.818;8.632;2022-08-19T12:34:53;28.20;48.50
23231;DHT22;11784;49.818;8.632;2022-08-19T12:37:19;28.20;49.20
23231;DHT22;11784;49.818;8.632;2022-08-19T12:39:45;28.30;48.50
23231;DHT22;11784;49.818;8.632;2022-08-19T12:42:13;28.30;48.70
23231;DHT22;11784;49.818;8.632;2022-08-19T12:44:41;28.30;49.30
23231;DHT22;11784;49.818;8.632;2022-08-19T12:47:09;28.40;48.60
23231;DHT22;11784;49.818;8.632;2022-08-19T12:49:35;28.50;47.90
23231;DHT22;11784;49.818;8.632;2022-08-19T12:52:03;28.50;47.50
23231;DHT22;11784;49.818;8.632;2022-08-19T12:54:29;28.50;47.00
23231;DHT22;11784;49.818;8.632;2022-08-19T12:56:59;28.50;46.80
23231;DHT22;11784;49.818;8.632;2022-08-19T12:59:25;28.60;47.50
23231;DHT22;11784;49.818;8.632;2022-08-19T13:01:51;28.60;49.90
23231;DHT22;11784;49.818;8.632;2022-08-19T13:04:16;28.70;46.90
23231;DHT22;11784;49.818;8.632;2022-08-19T13:06:42;28.90;47.10
23231;DHT22;11784;49.818;8.632;2022-08-19T13:09:08;29.10;46.60
23231;DHT22;11784;49.818;8.632;2022-08-19T13:11:35;29.20;45.90
23231;DHT22;11784;49.818;8.632;2022-08-19T13:14:02;29.20;44.80
23231;DHT22;11784;49.818;8.632;2022-08-19T13:16:29;29.40;45.10
23231;DHT22;11784;49.818;8.632;2022-08-19T13:18:56;29.60;44.30
23231;DHT22;11784;49.818;8.632;2022-08-19T13:21:25;29.80;43.40
23231;DHT22;11784;49.818;8.632;2022-08-19T13:23:53;30.10;43.10
23231;DHT22;11784;49.818;8.632;2022-08-19T13:26:19;30.50;43.20
23231;DHT22;11784;49.818;8.632;2022-08-19T13:28:45;31.20;42.20
23231;DHT22;11784;49.818;8.632;2022-08-19T13:31:32;32.00;40.30
23231;DHT22;11784;49.818;8.632;2022-08-19T13:34:18;32.80;39.30
23231;DHT22;11784;49.818;8.632;2022-08-19T13:36:45;33.20;38.60
23231;DHT22;11784;49.818;8.632;2022-08-19T13:39:11;33.30;36.90
23231;DHT22;11784;49.818;8.632;2022-08-19T13:41:43;33.20;36.70
23231;DHT22;11784;49.818;8.632;2022-08-19T13:44:14;33.20;37.30
23231;DHT22;11784;49.818;8.632;2022-08-19T13:46:40;33.50;37.30
23231;DHT22;11784;49.818;8.632;2022-08-19T13:49:10;33.50;34.80
23231;DHT22;11784;49.818;8.632;2022-08-19T13:51:36;33.30;35.80
23231;DHT22;11784;49.818;8.632;2022-08-19T13:54:02;33.10;37.10
23231;DHT22;11784;49.818;8.632;2022-08-19T13:56:28;32.70;36.80
23231;DHT22;11784;49.818;8.632;2022-08-19T13:58:53;32.40;37.80
23231;DHT22;11784;49.818;8.632;2022-08-19T14:01:22;32.40;40.20
23231;DHT22;11784;49.818;8.632;2022-08-19T14:03:48;32.80;38.30
23231;DHT22;11784;49.818;8.632;2022-08-19T14:06:14;33.70;36.10
23231;DHT22;11784;49.818;8.632;2022-08-19T14:08:40;34.70;34.80
23231;DHT22;11784;49.818;8.632;2022-08-19T14:11:07;35.50;33.40
23231;DHT22;11784;49.818;8.632;2022-08-19T14:13:42;36.40;31.70
23231;DHT22;11784;49.818;8.632;2022-08-19T14:16:13;37.30;30.70
23231;DHT22;11784;49.818;8.632;2022-08-19T14:18:39;38.20;30.70
23231;DHT22;11784;49.818;8.632;2022-08-19T14:21:06;39.00;29.50
23231;DHT22;11784;49.818;8.632;2022-08-19T14:23:32;39.70;27.70
23231;DHT22;11784;49.818;8.632;2022-08-19T14:26:10;40.00;27.00
23231;DHT22;11784;49.818;8.632;2022-08-19T14:28:37;40.00;26.10
23231;DHT22;11784;49.818;8.632;2022-08-19T14:31:03;39.60;26.10
23231;DHT22;11784;49.818;8.632;2022-08-19T14:33:28;39.30;26.90
23231;DHT22;11784;49.818;8.632;2022-08-19T14:35:54;39.10;26.80
23231;DHT22;11784;49.818;8.632;2022-08-19T14:38:20;38.80;26.50
23231;DHT22;11784;49.818;8.632;2022-08-19T14:40:45;38.30;26.90
23231;DHT22;11784;49.818;8.632;2022-08-19T14:43:11;37.60;27.50
23231;DHT22;11784;49.818;8.632;2022-08-19T14:45:39;36.90;28.60
23231;DHT22;11784;49.818;8.632;2022-08-19T14:48:07;36.00;29.70
23231;DHT22;11784;49.818;8.632;2022-08-19T14:50:34;35.40;30.60
23231;DHT22;11784;49.818;8.632;2022-08-19T14:53:01;34.70;31.60
23231;DHT22;11784;49.818;8.632;2022-08-19T14:55:28;34.10;32.10
23231;DHT22;11784;49.818;8.632;2022-08-19T14:57:54;33.60;32.70
23231;DHT22;11784;49.818;8.632;2022-08-19T15:00:20;33.20;34.10
23231;DHT22;11784;49.818;8.632;2022-08-19T15:02:46;32.80;33.40
23231;DHT22;11784;49.818;8.632;2022-08-19T15:05:11;32.50;34.80
23231;DHT22;11784;49.818;8.632;2022-08-19T15:07:38;32.20;34.80
23231;DHT22;11784;49.818;8.632;2022-08-19T15:10:06;31.90;35.20
23231;DHT22;11784;49.818;8.632;2022-08-19T15:12:33;31.70;34.90
23231;DHT22;11784;49.818;8.632;2022-08-19T15:15:00;31.60;35.30
23231;DHT22;11784;49.818;8.632;2022-08-19T15:17:25;31.50;35.60
23231;DHT22;11784;49.818;8.632;2022-08-19T15:19:51;31.40;36.00
23231;DHT22;11784;49.818;8.632;2022-08-19T15:22:17;31.30;35.70
23231;DHT22;11784;49.818;8.632;2022-08-19T15:24:43;31.20;35.50
23231;DHT22;11784;49.818;8.632;2022-08-19T15:27:11;31.20;36.20
23231;DHT22;11784;49.818;8.632;2022-08-19T15:29:39;31.20;41.30
23231;DHT22;11784;49.818;8.632;2022-08-19T15:32:06;31.10;38.50
23231;DHT22;11784;49.818;8.632;2022-08-19T15:34:32;31.00;39.40
23231;DHT22;11784;49.818;8.632;2022-08-19T15:36:59;30.90;38.40
23231;DHT22;11784;49.818;8.632;2022-08-19T15:39:25;30.80;37.80
23231;DHT22;11784;49.818;8.632;2022-08-19T15:41:50;30.80;39.00
23231;DHT22;11784;49.818;8.632;2022-08-19T15:44:18;30.80;37.90